Time;durP1;ratioP1;P1;durP2;ratioP2;P2;SDS_P1;SDS_P2;PMS_P1;PMS_P2;Temp;Humidity;BMP_temperature;BMP_pressure;BME280_temperature;BME280_humidity;BME280_pressure;Samples;Min_cycle;Max_cycle;Signal;HPM_P1;HPM_P2
2023/09/16 00:02:49;;;;;;;7.97;5.55;;;;;;;;;;6223121;28;20315;-77
2023/09/16 00:05:53;;;;;;;8.88;5.50;;;;;;;;;;6219503;28;20211;-77
2023/09/16 00:09:11;;;;;;;;;;;;;;;;;;6222542;28;20368;-78
2023/09/16 00:12:13;;;;;;;7.55;5.30;;;;;;;;;;6223261;28;19925;-77
2023/09/16 00:15:18;;;;;;;7.38;5.55;;;;;;;;;;6220455;28;20087;-76
2023/09/16 00:18:20;;;;;;;7.82;6.03;;;;;;;;;;6223922;28;20141;-78
2023/09/16 00:21:26;;;;;;;8.75;5.65;;;;;;;;;;6222940;28;20058;-78
2023/09/16 00:24:52;;;;;;;7.10;5.63;;;;;;;;;;6219279;28;20046;-78
2023/09/16 00:27:54;;;;;;;7.70;5.60;;;;;;;;;;6218744;28;20054;-77
2023/09/16 00:34:23;;;;;;;8.52;5.35;;;;;;;;;;6211345;28;20045;-77
2023/09/16 00:37:26;;;;;;;9.38;5.88;;;;;;;;;;6221755;28;20113;-77
2023/09/16 00:40:31;;;;;;;;;;;;;;;;;;6220147;28;20112;-76
2023/09/16 00:43:33;;;;;;;7.28;5.07;;;;;;;;;;6220621;28;19924;-77
2023/09/16 00:46:35;;;;;;;8.25;5.55;;;;;;;;;;6219450;28;20050;-76
2023/09/16 00:53:17;;;;;;;8.13;5.75;;;;;;;;;;6220289;28;20054;-76
2023/09/16 00:56:19;;;;;;;9.65;5.53;;;;;;;;;;6209697;28;20053;-77
2023/09/16 00:59:23;;;;;;;7.45;5.05;;;;;;;;;;6218704;28;20092;-77
2023/09/16 01:02:26;;;;;;;8.10;5.75;;;;;;;;;;6217094;28;20089;-77
2023/09/16 01:05:28;;;;;;;6.97;4.70;;;;;;;;;;6219331;28;20065;-78
2023/09/16 01:08:34;;;;;;;7.85;5.40;;;;;;;;;;6218975;28;20058;-76
2023/09/16 01:11:42;;;;;;;6.82;5.40;;;;;;;;;;6219327;28;20093;-77
2023/09/16 01:14:44;;;;;;;6.85;5.55;;;;;;;;;;6217098;28;20128;-76
2023/09/16 01:17:50;;;;;;;7.13;5.07;;;;;;;;;;6218826;28;20053;-77
2023/09/16 01:20:55;;;;;;;7.60;4.95;;;;;;;;;;6219549;28;20377;-79
2023/09/16 01:24:23;;;;;;;7.55;5.07;;;;;;;;;;6218025;28;20062;-78
2023/09/16 01:27:27;;;;;;;7.10;5.18;;;;;;;;;;6210830;28;20080;-76
2023/09/16 01:30:30;;;;;;;8.60;5.40;;;;;;;;;;6220843;28;20375;-77
2023/09/16 01:33:52;;;;;;;9.77;5.07;;;;;;;;;;6208422;28;20274;-77
2023/09/16 01:36:56;;;;;;;8.52;5.10;;;;;;;;;;6219618;28;20057;-78
2023/09/16 01:39:59;;;;;;;8.45;5.25;;;;;;;;;;6221796;28;20049;-78
2023/09/16 01:43:03;;;;;;;;;;;;;;;;;;6220133;28;20304;-78
2023/09/16 01:46:05;;;;;;;8.00;4.88;;;;;;;;;;6217377;28;19925;-78
2023/09/16 01:49:07;;;;;;;8.10;4.80;;;;;;;;;;6221385;28;20123;-77
2023/09/16 01:52:09;;;;;;;7.70;5.57;;;;;;;;;;6218747;28;20073;-81
2023/09/16 01:55:10;;;;;;;7.05;5.20;;;;;;;;;;6222611;28;20104;-78
2023/09/16 01:58:14;;;;;;;5.95;4.90;;;;;;;;;;6218832;28;20072;-79
2023/09/16 02:01:16;;;;;;;;;;;;;;;;;;6222081;28;20054;-79
2023/09/16 02:04:17;;;;;;;6.63;4.78;;;;;;;;;;6222823;28;19925;-78
2023/09/16 02:07:19;;;;;;;6.43;4.72;;;;;;;;;;6222935;28;20057;-79
2023/09/16 02:10:24;;;;;;;9.00;5.20;;;;;;;;;;6225228;28;20058;-83
2023/09/16 02:13:32;;;;;;;8.13;5.03;;;;;;;;;;6224779;28;20097;-77
2023/09/16 02:16:37;;;;;;;8.98;5.40;;;;;;;;;;6225211;28;20064;-77
2023/09/16 02:19:38;;;;;;;7.45;5.05;;;;;;;;;;6226996;28;20281;-78
2023/09/16 02:22:45;;;;;;;8.05;6.00;;;;;;;;;;6221881;28;20120;-78
2023/09/16 02:25:50;;;;;;;10.27;5.40;;;;;;;;;;6224371;28;20062;-77
2023/09/16 02:28:53;;;;;;;8.30;5.50;;;;;;;;;;6225662;28;20046;-77
2023/09/16 02:31:55;;;;;;;10.60;5.20;;;;;;;;;;6213988;28;20275;-78
2023/09/16 02:34:57;;;;;;;7.70;4.93;;;;;;;;;;6224715;28;20050;-76
2023/09/16 02:38:07;;;;;;;7.75;5.50;;;;;;;;;;6222624;28;20124;-76
2023/09/16 02:41:43;;;;;;;7.28;5.22;;;;;;;;;;6222863;28;20053;-76
2023/09/16 02:45:01;;;;;;;9.25;5.85;;;;;;;;;;6219305;28;20058;-77
2023/09/16 02:48:03;;;;;;;8.05;5.50;;;;;;;;;;6223747;28;20096;-77
2023/09/16 02:51:09;;;;;;;7.13;5.40;;;;;;;;;;6223095;28;20058;-77
2023/09/16 02:54:17;;;;;;;8.75;4.78;;;;;;;;;;6225093;28;20050;-78
2023/09/16 02:57:40;;;;;;;6.85;5.05;;;;;;;;;;6219991;28;20053;-77
2023/09/16 03:00:46;;;;;;;8.48;4.85;;;;;;;;;;6220066;28;20054;-77
2023/09/16 03:03:48;;;;;;;8.10;5.57;;;;;;;;;;6221967;28;20050;-77
2023/09/16 03:06:50;;;;;;;8.70;4.85;;;;;;;;;;6211880;28;20370;-77
2023/09/16 03:09:52;;;;;;;10.20;5.18;;;;;;;;;;6223834;28;20061;-77
2023/09/16 03:16:28;;;;;;;9.57;5.53;;;;;;;;;;6220010;28;20065;-76
2023/09/16 03:19:30;;;;;;;8.18;5.57;;;;;;;;;;6223225;28;20068;-77
2023/09/16 03:22:34;;;;;;;6.78;5.43;;;;;;;;;;6221937;28;20046;-76
2023/09/16 03:25:39;;;;;;;7.85;5.60;;;;;;;;;;6221850;28;20097;-78
2023/09/16 03:28:42;;;;;;;7.47;5.18;;;;;;;;;;6223107;28;20069;-77
2023/09/16 03:35:07;;;;;;;8.90;5.70;;;;;;;;;;6207336;28;20497;-79
2023/09/16 03:38:18;;;;;;;8.82;6.00;;;;;;;;;;6226318;28;20065;-77
2023/09/16 03:41:22;;;;;;;7.35;5.20;;;;;;;;;;6222095;28;20084;-77
2023/09/16 03:44:24;;;;;;;6.78;5.70;;;;;;;;;;6206687;28;20046;-77
2023/09/16 03:47:28;;;;;;;8.18;5.90;;;;;;;;;;6224236;28;20057;-82
2023/09/16 03:50:30;;;;;;;7.57;5.28;;;;;;;;;;6221114;28;20049;-80
2023/09/16 03:53:32;;;;;;;9.15;6.18;;;;;;;;;;6218001;28;20053;-77
2023/09/16 03:56:37;;;;;;;9.55;5.82;;;;;;;;;;6221356;28;20290;-78
2023/09/16 03:59:39;;;;;;;7.80;5.57;;;;;;;;;;6223829;28;20104;-79
2023/09/16 04:09:56;;;;;;;8.55;6.05;;;;;;;;;;6215540;28;20065;-77
2023/09/16 04:12:57;;;;;;;9.48;6.55;;;;;;;;;;6220466;28;20056;-76
2023/09/16 04:16:01;;;;;;;7.72;6.20;;;;;;;;;;6221946;28;20256;-76
2023/09/16 04:19:08;;;;;;;11.60;7.18;;;;;;;;;;6186749;28;20070;-77
2023/09/16 04:22:10;;;;;;;10.55;7.22;;;;;;;;;;6221220;28;20089;-76
2023/09/16 04:25:12;;;;;;;10.10;7.25;;;;;;;;;;6220819;28;20054;-77
2023/09/16 04:28:36;;;;;;;11.35;6.63;;;;;;;;;;6220255;28;20060;-78
2023/09/16 04:31:38;;;;;;;10.57;7.88;;;;;;;;;;6220339;28;20377;-77
2023/09/16 04:34:42;;;;;;;9.30;7.55;;;;;;;;;;6223540;28;20156;-77
2023/09/16 04:37:44;;;;;;;12.60;6.90;;;;;;;;;;6222039;28;20128;-79
2023/09/16 04:40:49;;;;;;;8.73;6.95;;;;;;;;;;6211995;28;20046;-77
2023/09/16 04:43:51;;;;;;;10.38;6.10;;;;;;;;;;6220104;28;20227;-76
2023/09/16 04:46:55;;;;;;;9.18;6.75;;;;;;;;;;6219662;28;20180;-76
2023/09/16 04:50:01;;;;;;;8.30;6.13;;;;;;;;;;6220344;28;20072;-76
2023/09/16 04:53:05;;;;;;;10.40;6.78;;;;;;;;;;6221405;28;20573;-77
2023/09/16 04:56:09;;;;;;;8.93;6.72;;;;;;;;;;6223149;28;20113;-78
2023/09/16 04:59:10;;;;;;;8.98;6.47;;;;;;;;;;6222165;28;20467;-77
2023/09/16 05:02:23;;;;;;;8.18;6.05;;;;;;;;;;6217502;28;20060;-77
2023/09/16 05:05:39;;;;;;;7.68;5.90;;;;;;;;;;6220132;28;20046;-77
2023/09/16 05:09:11;;;;;;;8.40;6.32;;;;;;;;;;6215555;28;20041;-77
2023/09/16 05:12:16;;;;;;;9.13;6.28;;;;;;;;;;6111657;29;20054;-78
2023/09/16 05:15:19;;;;;;;10.15;6.07;;;;;;;;;;6121904;29;20312;-77
2023/09/16 05:18:21;;;;;;;9.10;6.53;;;;;;;;;;6119356;29;20051;-79
2023/09/16 05:21:24;;;;;;;8.45;6.00;;;;;;;;;;6077900;29;20048;-76
2023/09/16 05:24:39;;;;;;;7.20;6.13;;;;;;;;;;6118429;29;20215;-78
2023/09/16 05:35:08;;;;;;;8.27;7.15;;;;;;;;;;6119040;29;20367;-78
2023/09/16 05:39:03;;;;;;;9.23;5.97;;;;;;;;;;6053776;29;20108;-78
2023/09/16 05:57:42;;;;;;;7.53;6.18;;;;;;;;;;6011720;29;20057;-79
2023/09/16 06:00:59;;;;;;;9.50;6.88;;;;;;;;;;6039634;29;20057;-78
2023/09/16 06:04:28;;;;;;;8.52;6.53;;;;;;;;;;6029828;29;20084;-78
2023/09/16 06:07:49;;;;;;;8.40;6.82;;;;;;;;;;6044331;29;20077;-76
2023/09/16 06:10:51;;;;;;;9.05;7.13;;;;;;;;;;6128668;29;20047;-77
2023/09/16 06:13:56;;;;;;;9.82;7.10;;;;;;;;;;6125628;29;20450;-79
2023/09/16 06:17:01;;;;;;;10.75;7.25;;;;;;;;;;6130023;29;20165;-76
2023/09/16 06:20:03;;;;;;;7.60;6.50;;;;;;;;;;6145661;28;20057;-76
2023/09/16 06:23:32;;;;;;;9.13;6.70;;;;;;;;;;6218819;28;20466;-76
2023/09/16 07:36:28;;;;;;;10.25;7.50;;;;;;;;;;6007092;29;20054;-76
2023/09/16 07:39:50;;;;;;;11.32;7.95;;;;;;;;;;6018339;29;20057;-76
2023/09/16 07:43:34;;;;;;;11.38;7.90;;;;;;;;;;6070104;29;20240;-78
2023/09/16 07:46:45;;;;;;;;;;;;;;;;;;5989646;29;20065;-76
2023/09/16 07:50:03;;;;;;;11.23;7.53;;;;;;;;;;6016987;29;20132;-76
2023/09/16 07:53:41;;;;;;;9.15;7.88;;;;;;;;;;6083504;29;20049;-75
2023/09/16 07:57:28;;;;;;;11.63;7.97;;;;;;;;;;6124431;29;20043;-77
2023/09/16 08:00:33;;;;;;;11.52;8.15;;;;;;;;;;6097518;29;20067;-76
2023/09/16 08:03:50;;;;;;;11.45;7.82;;;;;;;;;;6124658;29;20062;-76
2023/09/16 08:07:05;;;;;;;10.00;7.72;;;;;;;;;;6125234;29;20063;-76
2023/09/16 08:10:30;;;;;;;10.90;8.48;;;;;;;;;;6214828;28;20137;-77
2023/09/16 08:14:22;;;;;;;12.05;9.13;;;;;;;;;;6216208;28;20285;-75
2023/09/16 08:22:07;;;;;;;13.07;9.40;;;;;;;;;;6139986;28;20051;-76
2023/09/16 08:29:37;;;;;;;13.32;9.57;;;;;;;;;;6222781;28;20054;-76
2023/09/16 08:36:18;;;;;;;12.70;9.50;;;;;;;;;;6133047;28;20059;-77
2023/09/16 08:39:26;;;;;;;14.13;10.02;;;;;;;;;;6197702;28;20057;-77
2023/09/16 09:22:19;;;;;;;14.02;10.35;;;;;;;;;;6021568;29;20222;-76
2023/09/16 09:25:22;;;;;;;12.90;10.35;;;;;;;;;;6099450;29;20068;-76
2023/09/16 09:28:36;;;;;;;12.07;9.88;;;;;;;;;;6103610;29;20067;-76
2023/09/16 09:31:40;;;;;;;13.10;10.32;;;;;;;;;;6102088;29;20056;-78
2023/09/16 09:45:48;;;;;;;11.13;9.18;;;;;;;;;;6083426;29;20119;-77
2023/09/16 09:58:01;;;;;;;;;;;;;;;;;;;;;
2023/09/16 10:05:20;;;;;;;;;;;;;;;;;;;;;
2023/09/16 10:08:52;;;;;;;11.55;8.07;;;;;;;;;;6092932;29;20056;-77
2023/09/16 10:16:15;;;;;;;10.82;9.68;;;;;;;;;;6106328;28;20059;-77
2023/09/16 10:19:26;;;;;;;10.88;9.02;;;;;;;;;;6143617;28;20082;-77
2023/09/16 10:22:30;;;;;;;11.68;9.40;;;;;;;;;;6179906;28;20054;-77
2023/09/16 10:25:36;;;;;;;15.48;10.15;;;;;;;;;;6190046;28;20126;-77
2023/09/16 10:28:46;;;;;;;11.05;9.38;;;;;;;;;;6198171;28;20274;-80
2023/09/16 10:32:06;;;;;;;;;;;;;;;;;;;;;
2023/09/16 10:39:27;;;;;;;11.05;8.27;;;;;;;;;;6119468;29;20062;-77
2023/09/16 10:42:32;;;;;;;11.05;9.48;;;;;;;;;;6118743;29;20390;-76
2023/09/16 10:45:35;;;;;;;11.48;10.27;;;;;;;;;;6124359;29;20061;-76
2023/09/16 10:49:01;;;;;;;11.52;9.23;;;;;;;;;;6125800;28;20066;-77
2023/09/16 10:52:06;;;;;;;10.15;8.13;;;;;;;;;;6127328;28;20489;-77
2023/09/16 10:55:23;;;;;;;10.25;7.88;;;;;;;;;;6110826;28;20340;-80
2023/09/16 10:58:50;;;;;;;11.18;8.50;;;;;;;;;;6122849;28;20058;-76
2023/09/16 11:01:57;;;;;;;9.63;8.05;;;;;;;;;;6114345;28;20119;-77
2023/09/16 11:24:14;;;;;;;10.13;7.90;;;;;;;;;;6087932;28;20284;-77
2023/09/16 11:27:23;;;;;;;10.38;8.75;;;;;;;;;;6163212;28;20257;-77
2023/09/16 12:20:40;;;;;;;9.60;7.50;;;;;;;;;;5873572;29;20102;-76
2023/09/16 12:23:48;;;;;;;8.18;7.03;;;;;;;;;;5909801;30;20072;-77
2023/09/16 12:26:57;;;;;;;9.13;6.60;;;;;;;;;;5971930;29;20092;-77
2023/09/16 12:30:17;;;;;;;9.48;6.95;;;;;;;;;;6094281;28;20342;-76
2023/09/16 12:34:10;;;;;;;;;;;;;;;;;;;;;
2023/09/16 12:37:30;;;;;;;9.38;7.57;;;;;;;;;;6149083;28;20051;-77
2023/09/16 12:45:00;;;;;;;9.85;7.18;;;;;;;;;;6034654;29;20184;-80
2023/09/16 12:48:29;;;;;;;8.38;7.32;;;;;;;;;;6039845;29;20053;-77
2023/09/16 12:51:47;;;;;;;10.93;6.60;;;;;;;;;;6073186;28;20042;-77
2023/09/16 12:55:11;;;;;;;9.43;7.43;;;;;;;;;;6144225;28;20059;-78
2023/09/16 12:58:47;;;;;;;10.30;7.63;;;;;;;;;;6141867;28;20054;-77
2023/09/16 13:05:40;;;;;;;9.38;8.38;;;;;;;;;;6143396;28;20071;-77
2023/09/16 13:08:48;;;;;;;8.50;5.85;;;;;;;;;;6130224;28;20055;-77
2023/09/16 13:16:01;;;;;;;10.27;6.07;;;;;;;;;;6106421;29;20057;-78
2023/09/16 13:19:05;;;;;;;10.85;6.72;;;;;;;;;;6121325;29;20125;-77
2023/09/16 13:22:19;;;;;;;9.23;6.57;;;;;;;;;;6131255;28;20324;-77
2023/09/16 13:29:18;;;;;;;8.13;4.03;;;;;;;;;;6145792;28;20056;-81
2023/09/16 13:33:05;;;;;;;6.53;4.88;;;;;;;;;;6135014;28;20101;-77
2023/09/16 13:36:45;;;;;;;7.15;6.20;;;;;;;;;;6133093;28;20044;-77
2023/09/16 13:43:48;;;;;;;5.80;4.72;;;;;;;;;;6142171;28;21135;-81
2023/09/16 13:54:50;;;;;;;6.82;5.90;;;;;;;;;;6101227;29;20384;-78
2023/09/16 14:01:41;;;;;;;8.48;5.50;;;;;;;;;;6163590;28;20078;-77
2023/09/16 14:31:50;;;;;;;6.97;5.13;;;;;;;;;;6315745;27;20621;-78
2023/09/16 14:41:43;;;;;;;8.45;4.75;;;;;;;;;;6299673;28;20601;-78
2023/09/16 15:01:00;;;;;;;5.35;4.43;;;;;;;;;;6010980;29;20288;-79
2023/09/16 15:08:18;;;;;;;;;;;;;;;;;;5980390;29;20156;-76
2023/09/16 15:38:03;;;;;;;6.88;4.97;;;;;;;;;;5960711;29;20298;-78
2023/09/16 15:45:46;;;;;;;7.63;6.47;;;;;;;;;;6028892;29;20048;-77
2023/09/16 17:13:57;;;;;;;16.40;11.30;;;;;;;;;;6109449;29;20044;-77
2023/09/16 17:16:59;;;;;;;23.05;14.07;;;;;;;;;;6134921;28;20251;-76
2023/09/16 17:20:00;;;;;;;23.60;16.17;;;;;;;;;;6169352;28;20069;-79
2023/09/16 17:23:04;;;;;;;28.75;18.55;;;;;;;;;;6190110;28;20057;-78
2023/09/16 17:26:05;;;;;;;;;;;;;;;;;;6178160;28;20051;-78
2023/09/16 17:29:09;;;;;;;30.45;19.27;;;;;;;;;;6218305;28;19936;-79
2023/09/16 17:32:10;;;;;;;34.83;23.00;;;;;;;;;;6238141;28;20095;-78
2023/09/16 17:35:12;;;;;;;43.00;27.15;;;;;;;;;;6243067;28;20301;-78
2023/09/16 17:38:14;;;;;;;47.85;28.30;;;;;;;;;;6252668;28;20058;-76
2023/09/16 17:41:17;;;;;;;53.30;30.77;;;;;;;;;;6255870;28;20285;-78
2023/09/16 17:44:20;;;;;;;;;;;;;;;;;;6250507;28;20236;-78
2023/09/16 17:47:22;;;;;;;50.28;28.80;;;;;;;;;;6236960;28;19956;-77
2023/09/16 17:50:24;;;;;;;64.88;33.08;;;;;;;;;;6253433;28;20068;-77
2023/09/16 17:53:26;;;;;;;71.70;34.78;;;;;;;;;;6163770;28;290855;-80
2023/09/16 17:56:30;;;;;;;84.22;35.97;;;;;;;;;;6230190;28;20278;-77
2023/09/16 17:59:33;;;;;;;94.60;39.60;;;;;;;;;;6231000;28;20338;-75
2023/09/16 18:02:35;;;;;;;131.32;43.58;;;;;;;;;;6229104;28;20042;-77
2023/09/16 18:05:37;;;;;;;104.18;42.50;;;;;;;;;;6207363;28;20050;-76
2023/09/16 18:08:39;;;;;;;115.00;47.92;;;;;;;;;;6230714;28;20318;-77
2023/09/16 18:11:41;;;;;;;111.82;45.13;;;;;;;;;;6213046;28;20058;-76
2023/09/16 18:14:44;;;;;;;116.03;43.95;;;;;;;;;;6240229;28;20092;-78
2023/09/16 18:17:45;;;;;;;118.28;47.08;;;;;;;;;;6252635;28;20957;-77
2023/09/16 18:20:47;;;;;;;108.30;45.22;;;;;;;;;;6232910;28;20314;-79
2023/09/16 18:23:49;;;;;;;126.32;46.65;;;;;;;;;;6244456;28;20056;-76
2023/09/16 18:26:51;;;;;;;111.95;43.90;;;;;;;;;;6224375;28;20069;-76
2023/09/16 18:29:54;;;;;;;121.68;46.50;;;;;;;;;;6247060;28;20053;-78
2023/09/16 18:32:56;;;;;;;108.32;46.45;;;;;;;;;;6250405;28;20045;-78
2023/09/16 18:35:58;;;;;;;115.95;44.85;;;;;;;;;;6230829;28;20054;-80
2023/09/16 18:38:59;;;;;;;120.35;44.63;;;;;;;;;;6237188;28;20108;-78
2023/09/16 18:42:02;;;;;;;114.22;44.63;;;;;;;;;;6233321;28;20058;-78
2023/09/16 18:45:07;;;;;;;108.57;45.05;;;;;;;;;;6230837;28;20306;-77
2023/09/16 18:48:09;;;;;;;111.68;43.72;;;;;;;;;;6223862;28;20066;-77
2023/09/16 18:51:11;;;;;;;115.32;45.50;;;;;;;;;;6230952;28;20096;-78
2023/09/16 18:54:13;;;;;;;114.32;45.40;;;;;;;;;;6228911;28;20054;-78
2023/09/16 18:57:18;;;;;;;111.00;45.58;;;;;;;;;;6229092;28;20053;-77
2023/09/16 19:00:21;;;;;;;104.03;45.00;;;;;;;;;;6229661;28;20057;-77
2023/09/16 19:03:23;;;;;;;;;;;;;;;;;;6254582;28;20045;-77
2023/09/16 19:06:24;;;;;;;97.45;41.03;;;;;;;;;;6247220;28;19945;-78
2023/09/16 19:09:26;;;;;;;97.20;39.65;;;;;;;;;;6253586;28;20053;-76
2023/09/16 19:12:28;;;;;;;79.55;39.33;;;;;;;;;;6253051;28;20053;-76
2023/09/16 19:15:33;;;;;;;70.38;37.17;;;;;;;;;;6252604;28;20049;-78
2023/09/16 19:18:35;;;;;;;68.63;35.63;;;;;;;;;;6251901;28;20058;-75
2023/09/16 19:21:37;;;;;;;61.47;33.85;;;;;;;;;;6248362;28;20110;-78
2023/09/16 19:24:39;;;;;;;62.17;33.50;;;;;;;;;;6232736;28;20068;-80
2023/09/16 19:27:41;;;;;;;55.53;32.83;;;;;;;;;;6247216;28;20832;-77
2023/09/16 19:30:44;;;;;;;49.85;31.30;;;;;;;;;;6231378;28;20045;-76
2023/09/16 19:33:45;;;;;;;50.97;30.42;;;;;;;;;;6246298;28;20061;-78
2023/09/16 19:36:47;;;;;;;44.72;28.83;;;;;;;;;;6233570;28;20053;-80
2023/09/16 19:39:49;;;;;;;45.97;29.73;;;;;;;;;;6251060;28;20041;-78
2023/09/16 19:42:51;;;;;;;43.35;29.35;;;;;;;;;;6242838;28;20064;-75
2023/09/16 19:46:00;;;;;;;44.80;29.27;;;;;;;;;;6227187;28;20372;-76
2023/09/16 19:49:02;;;;;;;42.80;28.92;;;;;;;;;;6229354;28;20058;-75
2023/09/16 19:52:04;;;;;;;37.78;26.80;;;;;;;;;;6227751;28;20057;-77
2023/09/16 19:55:07;;;;;;;35.20;25.52;;;;;;;;;;6236364;28;20103;-74
2023/09/16 19:58:09;;;;;;;35.85;27.13;;;;;;;;;;6246985;28;20092;-78
2023/09/16 20:01:12;;;;;;;31.08;24.52;;;;;;;;;;6237497;28;20050;-76
2023/09/16 20:04:14;;;;;;;36.70;27.17;;;;;;;;;;6249446;28;20053;-76
2023/09/16 20:07:16;;;;;;;33.53;26.20;;;;;;;;;;6247026;28;20052;-75
2023/09/16 20:10:17;;;;;;;37.03;25.95;;;;;;;;;;6252431;28;20309;-76
2023/09/16 20:13:22;;;;;;;38.38;27.35;;;;;;;;;;6243326;28;20053;-76
2023/09/16 20:16:25;;;;;;;41.30;27.60;;;;;;;;;;6229997;28;20391;-76
2023/09/16 20:19:27;;;;;;;36.15;27.08;;;;;;;;;;6226646;28;20289;-74
2023/09/16 20:22:28;;;;;;;36.05;27.80;;;;;;;;;;6237134;28;20054;-76
2023/09/16 20:25:30;;;;;;;29.98;24.27;;;;;;;;;;6250579;28;20336;-74
2023/09/16 20:28:32;;;;;;;26.67;20.92;;;;;;;;;;6251491;28;20112;-75
2023/09/16 20:31:35;;;;;;;29.95;22.88;;;;;;;;;;6246483;28;20081;-74
2023/09/16 20:34:37;;;;;;;32.13;23.00;;;;;;;;;;6241984;28;20050;-73
2023/09/16 20:37:39;;;;;;;31.63;24.35;;;;;;;;;;6238652;28;20052;-74
2023/09/16 20:40:41;;;;;;;29.95;23.10;;;;;;;;;;6252022;28;20045;-76
2023/09/16 20:43:43;;;;;;;29.73;22.98;;;;;;;;;;6234201;28;20242;-75
2023/09/16 20:46:46;;;;;;;33.40;23.52;;;;;;;;;;6228834;28;20054;-75
2023/09/16 20:49:47;;;;;;;34.25;23.92;;;;;;;;;;6227073;28;20050;-73
2023/09/16 20:52:49;;;;;;;32.17;24.77;;;;;;;;;;6239690;28;20053;-77
2023/09/16 20:55:51;;;;;;;35.72;27.00;;;;;;;;;;6247894;28;20053;-74
2023/09/16 20:58:52;;;;;;;35.28;26.08;;;;;;;;;;6226541;28;20338;-73
2023/09/16 21:01:56;;;;;;;34.55;25.58;;;;;;;;;;6243536;28;20049;-74
2023/09/16 21:04:57;;;;;;;33.83;25.45;;;;;;;;;;6256339;28;20049;-73
2023/09/16 21:07:59;;;;;;;38.55;25.35;;;;;;;;;;6242214;28;20084;-74
2023/09/16 21:11:01;;;;;;;33.72;26.17;;;;;;;;;;6246570;28;20057;-75
2023/09/16 21:14:03;;;;;;;32.85;24.02;;;;;;;;;;6239142;28;20050;-74
2023/09/16 21:17:06;;;;;;;33.92;23.80;;;;;;;;;;6247491;28;20104;-77
2023/09/16 21:20:09;;;;;;;30.85;24.42;;;;;;;;;;6254547;28;20060;-75
2023/09/16 21:23:11;;;;;;;42.13;28.80;;;;;;;;;;6254698;28;20045;-75
2023/09/16 21:26:13;;;;;;;38.88;26.80;;;;;;;;;;6249681;28;20087;-76
2023/09/16 21:29:14;;;;;;;36.63;26.08;;;;;;;;;;6240156;28;20065;-76
2023/09/16 21:32:17;;;;;;;35.72;26.77;;;;;;;;;;6246761;28;20057;-75
2023/09/16 21:35:20;;;;;;;34.28;26.38;;;;;;;;;;6238888;28;20137;-75
2023/09/16 21:38:21;;;;;;;39.60;27.42;;;;;;;;;;6244539;28;20042;-76
2023/09/16 21:41:23;;;;;;;37.00;27.13;;;;;;;;;;6255217;28;20041;-79
2023/09/16 21:44:25;;;;;;;35.13;27.15;;;;;;;;;;6254228;28;20057;-75
2023/09/16 21:47:29;;;;;;;36.00;25.60;;;;;;;;;;6253864;28;20069;-75
2023/09/16 21:50:31;;;;;;;38.40;26.35;;;;;;;;;;6249261;28;20069;-75
2023/09/16 21:53:33;;;;;;;33.10;23.92;;;;;;;;;;6256033;28;20045;-76
2023/09/16 21:56:34;;;;;;;30.25;23.08;;;;;;;;;;6249775;28;20045;-75
2023/09/16 21:59:36;;;;;;;30.17;22.30;;;;;;;;;;6234434;28;20052;-75
2023/09/16 22:02:39;;;;;;;27.30;20.70;;;;;;;;;;6237437;28;20054;-75
2023/09/16 22:05:41;;;;;;;28.45;19.60;;;;;;;;;;6230386;28;20360;-74
2023/09/16 22:08:42;;;;;;;25.25;18.83;;;;;;;;;;6249170;28;20226;-75
2023/09/16 22:11:44;;;;;;;22.20;17.60;;;;;;;;;;6234002;28;20338;-76
2023/09/16 22:14:46;;;;;;;18.55;14.90;;;;;;;;;;6250343;28;20056;-74
2023/09/16 22:17:49;;;;;;;15.85;12.80;;;;;;;;;;6230549;28;20335;-73
2023/09/16 22:20:51;;;;;;;17.90;13.35;;;;;;;;;;6252063;28;20219;-73
2023/09/16 22:23:52;;;;;;;16.27;12.65;;;;;;;;;;6252854;28;20102;-75
2023/09/16 22:26:57;;;;;;;20.48;13.68;;;;;;;;;;6233482;28;20357;-73
2023/09/16 22:29:58;;;;;;;16.50;12.85;;;;;;;;;;6249553;28;20054;-77
2023/09/16 22:33:02;;;;;;;14.18;11.20;;;;;;;;;;6251916;28;20333;-76
2023/09/16 22:36:04;;;;;;;13.73;11.70;;;;;;;;;;6249623;28;20050;-75
2023/09/16 22:39:08;;;;;;;12.57;11.05;;;;;;;;;;6253347;28;20059;-74
2023/09/16 22:42:09;;;;;;;;;;;;;;;;;;6249983;28;20054;-73
2023/09/16 22:45:12;;;;;;;15.07;11.68;;;;;;;;;;6230590;28;19931;-74
2023/09/16 22:48:15;;;;;;;14.25;11.45;;;;;;;;;;6217637;28;20104;-75
2023/09/16 22:51:17;;;;;;;15.00;11.02;;;;;;;;;;6241888;28;20052;-77
2023/09/16 22:54:19;;;;;;;10.88;9.73;;;;;;;;;;6230339;28;20050;-74
2023/09/16 22:57:20;;;;;;;13.50;10.00;;;;;;;;;;6252434;28;20060;-73
2023/09/16 23:00:22;;;;;;;11.00;9.80;;;;;;;;;;6253648;28;20057;-73
2023/09/16 23:03:25;;;;;;;12.82;9.60;;;;;;;;;;6250260;28;20062;-73
2023/09/16 23:06:27;;;;;;;11.18;8.25;;;;;;;;;;6231274;28;20065;-74
2023/09/16 23:09:29;;;;;;;10.65;8.23;;;;;;;;;;6253619;28;20045;-75
2023/09/16 23:12:30;;;;;;;9.15;7.85;;;;;;;;;;6249665;28;20234;-74
2023/09/16 23:15:32;;;;;;;10.18;8.00;;;;;;;;;;6230398;28;20046;-74
2023/09/16 23:18:35;;;;;;;11.23;7.97;;;;;;;;;;6252120;28;20045;-73
2023/09/16 23:21:37;;;;;;;10.45;7.90;;;;;;;;;;6243482;28;20049;-74
2023/09/16 23:24:39;;;;;;;9.77;8.18;;;;;;;;;;6249076;28;20061;-74
2023/09/16 23:27:40;;;;;;;9.90;8.23;;;;;;;;;;6232121;28;20148;-73
2023/09/16 23:30:42;;;;;;;13.90;8.63;;;;;;;;;;6251515;28;20056;-77
2023/09/16 23:33:46;;;;;;;11.02;8.90;;;;;;;;;;6251918;28;20057;-75
2023/09/16 23:36:47;;;;;;;;;;;;;;;;;;6247663;28;20126;-73
2023/09/16 23:39:49;;;;;;;11.43;9.18;;;;;;;;;;6245888;28;19924;-74
2023/09/16 23:42:50;;;;;;;9.82;8.30;;;;;;;;;;6232900;28;20072;-78
2023/09/16 23:45:52;;;;;;;11.55;9.68;;;;;;;;;;6252058;28;20061;-74
2023/09/16 23:48:55;;;;;;;10.73;9.13;;;;;;;;;;6252188;28;20067;-73
2023/09/16 23:51:57;;;;;;;13.60;9.07;;;;;;;;;;6252111;28;20660;-76
2023/09/16 23:54:59;;;;;;;10.65;9.05;;;;;;;;;;6252307;28;20072;-74
2023/09/16 23:58:00;;;;;;;13.52;10.05;;;;;;;;;;6233531;28;20050;-74
